sensor_id;sensor_type;location;lat;lon;timestamp;pressure;altitude;pressure_sealevel;temperature;humidity
55912;BME280;41823;45.534;-73.332;2022-08-19T00:01:04;100468.00;;;30.91;29.36
55912;BME280;41823;45.534;-73.332;2022-08-19T00:03:32;100466.19;;;30.97;29.50
55912;BME280;41823;45.534;-73.332;2022-08-19T00:06:00;100474.86;;;30.85;29.14
55912;BME280;41823;45.534;-73.332;2022-08-19T00:08:28;100475.31;;;31.07;29.24
55912;BME280;41823;45.534;-73.332;2022-08-19T00:10:56;100476.75;;;31.09;29.30
55912;BME280;41823;45.534;-73.332;2022-08-19T00:13:24;100481.95;;;30.86;29.62
55912;BME280;41823;45.534;-73.332;2022-08-19T00:15:51;100482.11;;;31.21;29.29
55912;BME280;41823;45.534;-73.332;2022-08-19T00:18:19;100485.65;;;31.18;29.04
55912;BME280;41823;45.534;-73.332;2022-08-19T00:20:47;100485.80;;;31.19;28.94
55912;BME280;41823;45.534;-73.332;2022-08-19T00:23:16;100486.97;;;31.09;29.32
55912;BME280;41823;45.534;-73.332;2022-08-19T00:25:44;100488.28;;;30.87;29.35
55912;BME280;41823;45.534;-73.332;2022-08-19T00:28:13;100483.27;;;30.96;29.72
55912;BME280;41823;45.534;-73.332;2022-08-19T00:30:41;100480.17;;;31.06;29.47
55912;BME280;41823;45.534;-73.332;2022-08-19T00:33:08;100477.56;;;31.38;29.12
55912;BME280;41823;45.534;-73.332;2022-08-19T00:35:37;100479.05;;;31.47;29.11
55912;BME280;41823;45.534;-73.332;2022-08-19T00:38:05;100479.75;;;31.18;28.37
55912;BME280;41823;45.534;-73.332;2022-08-19T00:40:33;100485.04;;;31.34;29.24
55912;BME280;41823;45.534;-73.332;2022-08-19T00:43:01;100491.28;;;31.00;29.25
55912;BME280;41823;45.534;-73.332;2022-08-19T00:45:34;100488.88;;;31.11;29.45
55912;BME280;41823;45.534;-73.332;2022-08-19T00:48:03;100491.30;;;31.28;29.33
55912;BME280;41823;45.534;-73.332;2022-08-19T00:50:31;100488.77;;;30.51;29.54
55912;BME280;41823;45.534;-73.332;2022-08-19T00:52:59;100493.77;;;31.09;29.42
55912;BME280;41823;45.534;-73.332;2022-08-19T00:55:29;100493.10;;;31.32;29.12
55912;BME280;41823;45.534;-73.332;2022-08-19T00:58:02;100490.85;;;31.12;28.99
55912;BME280;41823;45.534;-73.332;2022-08-19T01:00:31;100490.74;;;31.10;29.24
55912;BME280;41823;45.534;-73.332;2022-08-19T01:02:59;100490.92;;;31.06;28.90
55912;BME280;41823;45.534;-73.332;2022-08-19T01:05:29;100498.40;;;31.23;29.20
55912;BME280;41823;45.534;-73.332;2022-08-19T01:08:00;100499.58;;;30.99;29.25
55912;BME280;41823;45.534;-73.332;2022-08-19T01:10:32;100503.21;;;31.23;29.20
55912;BME280;41823;45.534;-73.332;2022-08-19T01:13:03;100501.80;;;31.32;29.10
55912;BME280;41823;45.534;-73.332;2022-08-19T01:15:33;100496.11;;;30.97;28.85
55912;BME280;41823;45.534;-73.332;2022-08-19T01:18:07;100497.40;;;31.17;29.21
55912;BME280;41823;45.534;-73.332;2022-08-19T01:20:36;100497.14;;;31.11;29.43
55912;BME280;41823;45.534;-73.332;2022-08-19T01:23:04;100498.01;;;30.69;29.11
55912;BME280;41823;45.534;-73.332;2022-08-19T01:25:39;100496.17;;;31.11;28.92
55912;BME280;41823;45.534;-73.332;2022-08-19T01:28:12;100497.31;;;30.72;29.32
55912;BME280;41823;45.534;-73.332;2022-08-19T01:30:42;100497.57;;;30.91;29.18
55912;BME280;41823;45.534;-73.332;2022-08-19T01:33:10;100500.51;;;31.15;29.21
55912;BME280;41823;45.534;-73.332;2022-08-19T01:35:38;100500.27;;;30.73;28.93
55912;BME280;41823;45.534;-73.332;2022-08-19T01:38:08;100500.76;;;31.22;28.95
55912;BME280;41823;45.534;-73.332;2022-08-19T01:40:39;100501.53;;;31.14;28.80
55912;BME280;41823;45.534;-73.332;2022-08-19T01:43:06;100502.31;;;31.22;28.87
55912;BME280;41823;45.534;-73.332;2022-08-19T01:45:35;100498.72;;;30.97;28.97
55912;BME280;41823;45.534;-73.332;2022-08-19T01:48:04;100493.67;;;30.70;29.21
55912;BME280;41823;45.534;-73.332;2022-08-19T01:50:34;100501.37;;;31.01;29.24
55912;BME280;41823;45.534;-73.332;2022-08-19T01:53:07;100497.48;;;30.84;29.14
55912;BME280;41823;45.534;-73.332;2022-08-19T01:55:36;100502.63;;;30.69;29.43
55912;BME280;41823;45.534;-73.332;2022-08-19T01:58:06;100500.38;;;31.11;29.17
55912;BME280;41823;45.534;-73.332;2022-08-19T02:00:35;100497.41;;;31.00;29.20
55912;BME280;41823;45.534;-73.332;2022-08-19T02:03:03;100500.62;;;31.14;28.97
55912;BME280;41823;45.534;-73.332;2022-08-19T02:05:30;100501.90;;;30.80;29.24
55912;BME280;41823;45.534;-73.332;2022-08-19T02:07:58;100502.52;;;31.19;28.77
55912;BME280;41823;45.534;-73.332;2022-08-19T02:10:26;100498.85;;;30.64;29.24
55912;BME280;41823;45.534;-73.332;2022-08-19T02:12:54;100502.65;;;30.69;29.22
55912;BME280;41823;45.534;-73.332;2022-08-19T02:15:22;100505.93;;;30.93;29.25
55912;BME280;41823;45.534;-73.332;2022-08-19T02:17:50;100501.50;;;30.94;29.06
55912;BME280;41823;45.534;-73.332;2022-08-19T02:20:18;100502.78;;;30.89;29.12
55912;BME280;41823;45.534;-73.332;2022-08-19T02:22:46;100502.54;;;30.81;28.96
55912;BME280;41823;45.534;-73.332;2022-08-19T02:25:15;100508.08;;;30.89;29.24
55912;BME280;41823;45.534;-73.332;2022-08-19T02:27:43;100512.09;;;30.90;29.31
55912;BME280;41823;45.534;-73.332;2022-08-19T02:30:14;100506.84;;;30.97;29.10
55912;BME280;41823;45.534;-73.332;2022-08-19T02:32:42;100507.75;;;30.94;29.01
55912;BME280;41823;45.534;-73.332;2022-08-19T02:35:10;100517.33;;;30.84;29.20
55912;BME280;41823;45.534;-73.332;2022-08-19T02:37:38;100520.64;;;31.19;29.03
55912;BME280;41823;45.534;-73.332;2022-08-19T02:40:07;100525.60;;;30.96;28.77
55912;BME280;41823;45.534;-73.332;2022-08-19T02:42:35;100526.32;;;30.74;29.24
55912;BME280;41823;45.534;-73.332;2022-08-19T02:45:03;100519.40;;;30.84;29.34
55912;BME280;41823;45.534;-73.332;2022-08-19T02:47:32;100525.77;;;30.98;29.12
55912;BME280;41823;45.534;-73.332;2022-08-19T02:50:01;100525.63;;;30.91;29.08
55912;BME280;41823;45.534;-73.332;2022-08-19T02:52:32;100516.53;;;30.90;28.89
55912;BME280;41823;45.534;-73.332;2022-08-19T02:55:00;100520.14;;;30.78;29.38
55912;BME280;41823;45.534;-73.332;2022-08-19T02:57:30;100517.89;;;31.21;29.03
55912;BME280;41823;45.534;-73.332;2022-08-19T02:59:58;100516.60;;;31.16;29.01
55912;BME280;41823;45.534;-73.332;2022-08-19T03:02:27;100518.68;;;30.82;29.15
55912;BME280;41823;45.534;-73.332;2022-08-19T03:04:55;100517.95;;;30.96;29.11
55912;BME280;41823;45.534;-73.332;2022-08-19T03:07:23;100512.15;;;31.20;29.06
55912;BME280;41823;45.534;-73.332;2022-08-19T03:09:51;100510.02;;;31.09;28.80
55912;BME280;41823;45.534;-73.332;2022-08-19T03:12:19;100504.81;;;31.20;28.96
55912;BME280;41823;45.534;-73.332;2022-08-19T03:14:47;100510.55;;;31.19;29.36
55912;BME280;41823;45.534;-73.332;2022-08-19T03:17:15;100511.09;;;31.24;28.95
55912;BME280;41823;45.534;-73.332;2022-08-19T03:19:43;100511.84;;;31.17;28.63
55912;BME280;41823;45.534;-73.332;2022-08-19T03:22:11;100507.64;;;30.94;28.75
55912;BME280;41823;45.534;-73.332;2022-08-19T03:24:40;100504.81;;;31.44;28.90
55912;BME280;41823;45.534;-73.332;2022-08-19T03:27:08;100509.80;;;31.42;28.64
55912;BME280;41823;45.534;-73.332;2022-08-19T03:29:37;100514.55;;;31.11;28.91
55912;BME280;41823;45.534;-73.332;2022-08-19T03:32:05;100519.61;;;31.18;28.66
55912;BME280;41823;45.534;-73.332;2022-08-19T03:34:35;100526.76;;;30.75;29.08
55912;BME280;41823;45.534;-73.332;2022-08-19T03:37:06;100517.77;;;31.15;29.25
55912;BME280;41823;45.534;-73.332;2022-08-19T03:39:36;100522.27;;;30.99;28.54
55912;BME280;41823;45.534;-73.332;2022-08-19T03:42:05;100521.99;;;31.13;29.06
55912;BME280;41823;45.534;-73.332;2022-08-19T03:44:33;100518.50;;;31.02;29.13
55912;BME280;41823;45.534;-73.332;2022-08-19T03:47:01;100525.14;;;30.96;29.04
55912;BME280;41823;45.534;-73.332;2022-08-19T03:49:31;100514.76;;;30.74;29.31
55912;BME280;41823;45.534;-73.332;2022-08-19T03:51:59;100516.51;;;31.03;28.74
55912;BME280;41823;45.534;-73.332;2022-08-19T03:54:27;100517.50;;;30.87;29.06
55912;BME280;41823;45.534;-73.332;2022-08-19T03:56:56;100522.47;;;30.53;28.76
55912;BME280;41823;45.534;-73.332;2022-08-19T03:59:30;100526.18;;;30.57;29.20
55912;BME280;41823;45.534;-73.332;2022-08-19T04:02:00;100523.82;;;30.92;29.02
55912;BME280;41823;45.534;-73.332;2022-08-19T04:04:29;100517.06;;;31.15;28.90
55912;BME280;41823;45.534;-73.332;2022-08-19T04:06:57;100511.01;;;30.84;28.84
55912;BME280;41823;45.534;-73.332;2022-08-19T04:09:25;100506.88;;;30.93;28.93
55912;BME280;41823;45.534;-73.332;2022-08-19T04:11:55;100502.04;;;30.87;28.93
55912;BME280;41823;45.534;-73.332;2022-08-19T04:14:26;100510.85;;;30.98;28.66
55912;BME280;41823;45.534;-73.332;2022-08-19T04:16:54;100514.04;;;30.95;28.53
55912;BME280;41823;45.534;-73.332;2022-08-19T04:19:22;100515.11;;;30.48;28.59
55912;BME280;41823;45.534;-73.332;2022-08-19T04:21:52;100519.77;;;30.82;28.62
55912;BME280;41823;45.534;-73.332;2022-08-19T04:24:21;100523.84;;;30.68;28.96
55912;BME280;41823;45.534;-73.332;2022-08-19T04:26:50;100527.07;;;30.81;28.62
55912;BME280;41823;45.534;-73.332;2022-08-19T04:29:21;100528.69;;;30.80;28.76
55912;BME280;41823;45.534;-73.332;2022-08-19T04:31:49;100528.00;;;30.85;29.03
55912;BME280;41823;45.534;-73.332;2022-08-19T04:34:19;100523.96;;;30.80;28.97
55912;BME280;41823;45.534;-73.332;2022-08-19T04:36:47;100524.87;;;31.04;28.72
55912;BME280;41823;45.534;-73.332;2022-08-19T04:39:18;100535.45;;;30.70;28.89
55912;BME280;41823;45.534;-73.332;2022-08-19T04:41:46;100536.18;;;31.01;28.75
55912;BME280;41823;45.534;-73.332;2022-08-19T04:44:14;100544.04;;;31.06;28.84
55912;BME280;41823;45.534;-73.332;2022-08-19T04:46:43;100546.20;;;30.93;28.73
55912;BME280;41823;45.534;-73.332;2022-08-19T04:49:10;100548.68;;;30.88;28.50
55912;BME280;41823;45.534;-73.332;2022-08-19T04:51:40;100554.20;;;30.56;28.15
55912;BME280;41823;45.534;-73.332;2022-08-19T04:54:09;100549.69;;;30.85;28.05
55912;BME280;41823;45.534;-73.332;2022-08-19T04:56:39;100554.06;;;30.88;28.02
55912;BME280;41823;45.534;-73.332;2022-08-19T04:59:07;100558.62;;;30.85;28.58
55912;BME280;41823;45.534;-73.332;2022-08-19T05:01:35;100556.43;;;30.74;28.66
55912;BME280;41823;45.534;-73.332;2022-08-19T05:04:05;100554.06;;;30.54;29.03
55912;BME280;41823;45.534;-73.332;2022-08-19T05:06:34;100556.13;;;30.79;28.66
55912;BME280;41823;45.534;-73.332;2022-08-19T05:09:04;100559.57;;;30.85;28.75
55912;BME280;41823;45.534;-73.332;2022-08-19T05:11:37;100559.95;;;30.33;29.08
55912;BME280;41823;45.534;-73.332;2022-08-19T05:14:06;100562.92;;;30.47;29.15
55912;BME280;41823;45.534;-73.332;2022-08-19T05:16:34;100566.51;;;31.04;28.42
55912;BME280;41823;45.534;-73.332;2022-08-19T05:19:03;100568.15;;;30.65;28.70
55912;BME280;41823;45.534;-73.332;2022-08-19T05:21:32;100571.13;;;30.59;29.12
55912;BME280;41823;45.534;-73.332;2022-08-19T05:23:59;100574.38;;;30.68;28.84
55912;BME280;41823;45.534;-73.332;2022-08-19T05:26:27;100573.57;;;30.79;28.68
55912;BME280;41823;45.534;-73.332;2022-08-19T05:28:55;100572.46;;;30.72;28.72
55912;BME280;41823;45.534;-73.332;2022-08-19T05:31:23;100573.89;;;30.84;28.73
55912;BME280;41823;45.534;-73.332;2022-08-19T05:33:51;100571.21;;;30.87;28.54
55912;BME280;41823;45.534;-73.332;2022-08-19T05:36:19;100572.35;;;30.65;28.75
55912;BME280;41823;45.534;-73.332;2022-08-19T05:38:46;100572.91;;;30.78;28.87
55912;BME280;41823;45.534;-73.332;2022-08-19T05:41:15;100574.10;;;30.93;28.57
55912;BME280;41823;45.534;-73.332;2022-08-19T05:43:43;100572.59;;;30.72;28.69
55912;BME280;41823;45.534;-73.332;2022-08-19T05:46:17;100577.12;;;30.94;28.44
55912;BME280;41823;45.534;-73.332;2022-08-19T05:48:46;100573.71;;;31.30;27.99
55912;BME280;41823;45.534;-73.332;2022-08-19T05:51:13;100569.27;;;31.07;28.33
55912;BME280;41823;45.534;-73.332;2022-08-19T05:53:42;100572.87;;;30.52;28.75
55912;BME280;41823;45.534;-73.332;2022-08-19T05:56:12;100571.60;;;30.95;28.46
55912;BME280;41823;45.534;-73.332;2022-08-19T05:58:41;100568.59;;;30.91;28.64
55912;BME280;41823;45.534;-73.332;2022-08-19T06:01:12;100567.42;;;30.80;28.56
55912;BME280;41823;45.534;-73.332;2022-08-19T06:03:41;100565.21;;;30.76;28.78
55912;BME280;41823;45.534;-73.332;2022-08-19T06:06:11;100571.71;;;30.36;28.97
55912;BME280;41823;45.534;-73.332;2022-08-19T06:08:39;100567.72;;;30.71;28.83
55912;BME280;41823;45.534;-73.332;2022-08-19T06:11:17;100568.17;;;30.81;28.60
55912;BME280;41823;45.534;-73.332;2022-08-19T06:13:46;100570.62;;;30.92;28.65
55912;BME280;41823;45.534;-73.332;2022-08-19T06:16:14;100574.52;;;30.78;28.59
55912;BME280;41823;45.534;-73.332;2022-08-19T06:18:42;100576.22;;;30.94;27.71
55912;BME280;41823;45.534;-73.332;2022-08-19T06:21:10;100583.06;;;30.59;27.96
55912;BME280;41823;45.534;-73.332;2022-08-19T06:23:38;100579.16;;;30.33;27.58
55912;BME280;41823;45.534;-73.332;2022-08-19T06:26:06;100576.28;;;30.52;27.48
55912;BME280;41823;45.534;-73.332;2022-08-19T06:28:34;100576.00;;;30.57;26.78
55912;BME280;41823;45.534;-73.332;2022-08-19T06:31:07;100575.22;;;30.55;26.98
55912;BME280;41823;45.534;-73.332;2022-08-19T06:33:35;100581.10;;;29.96;27.63
55912;BME280;41823;45.534;-73.332;2022-08-19T06:36:04;100583.59;;;29.88;27.81
55912;BME280;41823;45.534;-73.332;2022-08-19T06:38:31;100583.39;;;30.54;27.46
55912;BME280;41823;45.534;-73.332;2022-08-19T06:41:01;100583.32;;;29.88;27.17
55912;BME280;41823;45.534;-73.332;2022-08-19T06:43:30;100586.64;;;30.34;27.52
55912;BME280;41823;45.534;-73.332;2022-08-19T06:45:57;100584.95;;;30.60;27.31
55912;BME280;41823;45.534;-73.332;2022-08-19T06:48:26;100583.57;;;30.30;26.96
55912;BME280;41823;45.534;-73.332;2022-08-19T06:50:53;100585.58;;;29.87;27.94
55912;BME280;41823;45.534;-73.332;2022-08-19T06:53:21;100586.11;;;30.10;27.24
55912;BME280;41823;45.534;-73.332;2022-08-19T06:55:49;100592.33;;;30.08;26.34
55912;BME280;41823;45.534;-73.332;2022-08-19T06:58:17;100596.85;;;30.52;27.39
55912;BME280;41823;45.534;-73.332;2022-08-19T07:00:45;100595.98;;;30.29;26.48
55912;BME280;41823;45.534;-73.332;2022-08-19T07:03:13;100600.02;;;30.49;27.42
55912;BME280;41823;45.534;-73.332;2022-08-19T07:05:42;100598.69;;;30.59;27.05
55912;BME280;41823;45.534;-73.332;2022-08-19T07:08:10;100600.07;;;29.85;27.78
55912;BME280;41823;45.534;-73.332;2022-08-19T07:10:43;100601.48;;;30.51;27.93
55912;BME280;41823;45.534;-73.332;2022-08-19T07:13:11;100601.28;;;29.98;27.74
55912;BME280;41823;45.534;-73.332;2022-08-19T07:15:39;100603.79;;;30.34;28.21
55912;BME280;41823;45.534;-73.332;2022-08-19T07:18:07;100598.14;;;29.96;27.39
55912;BME280;41823;45.534;-73.332;2022-08-19T07:20:35;100602.01;;;30.45;27.32
55912;BME280;41823;45.534;-73.332;2022-08-19T07:23:03;100598.44;;;30.29;27.72
55912;BME280;41823;45.534;-73.332;2022-08-19T07:25:31;100595.43;;;30.43;28.00
55912;BME280;41823;45.534;-73.332;2022-08-19T07:27:58;100602.44;;;29.95;28.40
55912;BME280;41823;45.534;-73.332;2022-08-19T07:30:26;100607.23;;;29.94;28.49
55912;BME280;41823;45.534;-73.332;2022-08-19T07:32:54;100609.89;;;29.97;28.20
55912;BME280;41823;45.534;-73.332;2022-08-19T07:35:22;100612.37;;;30.35;28.55
55912;BME280;41823;45.534;-73.332;2022-08-19T07:37:50;100612.80;;;29.91;27.78
55912;BME280;41823;45.534;-73.332;2022-08-19T07:40:18;100612.38;;;30.28;27.32
55912;BME280;41823;45.534;-73.332;2022-08-19T07:42:46;100609.58;;;30.10;27.40
55912;BME280;41823;45.534;-73.332;2022-08-19T07:45:14;100609.94;;;29.76;27.77
55912;BME280;41823;45.534;-73.332;2022-08-19T07:47:41;100613.97;;;30.25;27.56
55912;BME280;41823;45.534;-73.332;2022-08-19T07:50:10;100617.93;;;30.02;28.20
55912;BME280;41823;45.534;-73.332;2022-08-19T07:52:39;100620.55;;;30.18;27.91
55912;BME280;41823;45.534;-73.332;2022-08-19T07:55:11;100618.74;;;29.97;28.46
55912;BME280;41823;45.534;-73.332;2022-08-19T07:57:38;100621.78;;;30.27;28.12
55912;BME280;41823;45.534;-73.332;2022-08-19T08:00:07;100622.85;;;30.23;27.96
55912;BME280;41823;45.534;-73.332;2022-08-19T08:02:35;100619.70;;;30.00;27.40
55912;BME280;41823;45.534;-73.332;2022-08-19T08:05:03;100621.92;;;30.22;27.25
55912;BME280;41823;45.534;-73.332;2022-08-19T08:07:31;100622.34;;;30.08;27.94
55912;BME280;41823;45.534;-73.332;2022-08-19T08:09:59;100619.72;;;30.16;27.87
55912;BME280;41823;45.534;-73.332;2022-08-19T08:12:31;100619.52;;;30.32;27.95
55912;BME280;41823;45.534;-73.332;2022-08-19T08:15:00;100621.43;;;29.74;28.24
55912;BME280;41823;45.534;-73.332;2022-08-19T08:17:29;100621.47;;;30.30;28.21
55912;BME280;41823;45.534;-73.332;2022-08-19T08:19:58;100621.37;;;30.50;27.86
55912;BME280;41823;45.534;-73.332;2022-08-19T08:22:26;100621.25;;;30.41;28.07
55912;BME280;41823;45.534;-73.332;2022-08-19T08:24:54;100620.10;;;30.64;27.81
55912;BME280;41823;45.534;-73.332;2022-08-19T08:27:22;100622.93;;;30.48;28.03
55912;BME280;41823;45.534;-73.332;2022-08-19T08:29:50;100621.96;;;30.47;28.21
55912;BME280;41823;45.534;-73.332;2022-08-19T08:32:18;100624.21;;;30.50;28.08
55912;BME280;41823;45.534;-73.332;2022-08-19T08:34:46;100625.98;;;29.69;28.46
55912;BME280;41823;45.534;-73.332;2022-08-19T08:37:14;100630.04;;;30.35;27.86
55912;BME280;41823;45.534;-73.332;2022-08-19T08:39:41;100629.85;;;30.32;28.27
55912;BME280;41823;45.534;-73.332;2022-08-19T08:42:15;100628.36;;;29.83;28.13
55912;BME280;41823;45.534;-73.332;2022-08-19T08:44:52;100630.51;;;29.87;28.31
55912;BME280;41823;45.534;-73.332;2022-08-19T08:47:22;100639.28;;;30.01;28.33
55912;BME280;41823;45.534;-73.332;2022-08-19T08:49:55;100640.28;;;29.96;28.17
55912;BME280;41823;45.534;-73.332;2022-08-19T08:52:29;100637.79;;;29.99;28.17
55912;BME280;41823;45.534;-73.332;2022-08-19T08:55:00;100641.48;;;30.23;28.06
55912;BME280;41823;45.534;-73.332;2022-08-19T08:57:36;100647.38;;;30.03;28.31
55912;BME280;41823;45.534;-73.332;2022-08-19T09:00:08;100646.08;;;30.15;27.91
55912;BME280;41823;45.534;-73.332;2022-08-19T09:02:38;100650.41;;;30.42;28.16
55912;BME280;41823;45.534;-73.332;2022-08-19T09:05:06;100652.33;;;29.96;28.28
55912;BME280;41823;45.534;-73.332;2022-08-19T09:07:52;100654.37;;;30.22;28.46
55912;BME280;41823;45.534;-73.332;2022-08-19T09:10:29;100658.86;;;30.45;28.33
55912;BME280;41823;45.534;-73.332;2022-08-19T09:13:07;100661.91;;;30.02;28.03
55912;BME280;41823;45.534;-73.332;2022-08-19T09:15:43;100662.28;;;29.78;27.99
55912;BME280;41823;45.534;-73.332;2022-08-19T09:18:12;100661.02;;;29.87;28.40
55912;BME280;41823;45.534;-73.332;2022-08-19T09:20:40;100664.47;;;30.14;28.35
55912;BME280;41823;45.534;-73.332;2022-08-19T09:23:07;100661.52;;;29.90;28.07
55912;BME280;41823;45.534;-73.332;2022-08-19T09:25:36;100667.31;;;30.39;28.42
55912;BME280;41823;45.534;-73.332;2022-08-19T09:28:03;100672.50;;;29.79;28.21
55912;BME280;41823;45.534;-73.332;2022-08-19T09:30:34;100672.53;;;30.11;28.06
55912;BME280;41823;45.534;-73.332;2022-08-19T09:33:06;100674.09;;;29.99;28.46
55912;BME280;41823;45.534;-73.332;2022-08-19T09:35:34;100673.60;;;30.40;28.17
55912;BME280;41823;45.534;-73.332;2022-08-19T09:38:02;100678.47;;;29.88;28.43
55912;BME280;41823;45.534;-73.332;2022-08-19T09:40:30;100675.52;;;30.34;28.32
55912;BME280;41823;45.534;-73.332;2022-08-19T09:42:59;100678.99;;;29.84;28.24
55912;BME280;41823;45.534;-73.332;2022-08-19T09:45:26;100682.75;;;30.49;28.27
55912;BME280;41823;45.534;-73.332;2022-08-19T09:47:54;100683.96;;;29.87;28.26
55912;BME280;41823;45.534;-73.332;2022-08-19T09:50:24;100685.59;;;30.22;28.23
55912;BME280;41823;45.534;-73.332;2022-08-19T09:52:52;100687.75;;;30.16;27.89
55912;BME280;41823;45.534;-73.332;2022-08-19T09:55:20;100687.81;;;30.30;28.05
55912;BME280;41823;45.534;-73.332;2022-08-19T09:57:48;100689.29;;;29.93;28.33
55912;BME280;41823;45.534;-73.332;2022-08-19T10:00:16;100693.44;;;30.16;28.14
55912;BME280;41823;45.534;-73.332;2022-08-19T10:02:44;100689.98;;;29.91;28.17
55912;BME280;41823;45.534;-73.332;2022-08-19T10:05:12;100694.69;;;30.20;28.04
55912;BME280;41823;45.534;-73.332;2022-08-19T10:07:39;100698.52;;;29.97;28.18
55912;BME280;41823;45.534;-73.332;2022-08-19T10:10:08;100701.89;;;30.23;28.19
55912;BME280;41823;45.534;-73.332;2022-08-19T10:12:36;100704.34;;;30.30;28.39
55912;BME280;41823;45.534;-73.332;2022-08-19T10:15:06;100706.04;;;30.27;28.01
55912;BME280;41823;45.534;-73.332;2022-08-19T10:17:34;100701.62;;;29.92;28.11
55912;BME280;41823;45.534;-73.332;2022-08-19T10:20:03;100709.40;;;29.77;28.46
55912;BME280;41823;45.534;-73.332;2022-08-19T10:22:31;100713.36;;;29.94;27.96
55912;BME280;41823;45.534;-73.332;2022-08-19T10:24:58;100711.88;;;30.05;28.35
55912;BME280;41823;45.534;-73.332;2022-08-19T10:27:26;100721.20;;;30.15;28.34
55912;BME280;41823;45.534;-73.332;2022-08-19T10:29:54;100721.62;;;29.87;28.02
55912;BME280;41823;45.534;-73.332;2022-08-19T10:32:22;100720.26;;;30.50;28.26
55912;BME280;41823;45.534;-73.332;2022-08-19T10:34:50;100721.77;;;29.96;28.33
55912;BME280;41823;45.534;-73.332;2022-08-19T10:37:18;100725.41;;;30.05;28.52
55912;BME280;41823;45.534;-73.332;2022-08-19T10:39:46;100728.75;;;29.97;28.50
55912;BME280;41823;45.534;-73.332;2022-08-19T10:42:14;100737.43;;;29.96;28.04
55912;BME280;41823;45.534;-73.332;2022-08-19T10:44:42;100738.26;;;30.31;28.36
55912;BME280;41823;45.534;-73.332;2022-08-19T10:47:11;100740.17;;;30.13;28.51
55912;BME280;41823;45.534;-73.332;2022-08-19T10:49:38;100740.69;;;30.37;28.09
55912;BME280;41823;45.534;-73.332;2022-08-19T10:52:06;100740.94;;;29.93;28.63
55912;BME280;41823;45.534;-73.332;2022-08-19T10:54:34;100741.05;;;30.45;28.69
55912;BME280;41823;45.534;-73.332;2022-08-19T10:57:02;100750.27;;;29.94;28.62
55912;BME280;41823;45.534;-73.332;2022-08-19T10:59:30;100750.00;;;30.07;29.19
55912;BME280;41823;45.534;-73.332;2022-08-19T11:02:01;100754.47;;;30.30;28.92
55912;BME280;41823;45.534;-73.332;2022-08-19T11:04:29;100762.82;;;29.89;29.17
55912;BME280;41823;45.534;-73.332;2022-08-19T11:06:57;100763.76;;;30.22;29.06
55912;BME280;41823;45.534;-73.332;2022-08-19T11:09:26;100763.27;;;30.47;29.11
55912;BME280;41823;45.534;-73.332;2022-08-19T11:11:55;100766.36;;;30.30;28.94
55912;BME280;41823;45.534;-73.332;2022-08-19T11:14:23;100766.73;;;30.17;29.07
55912;BME280;41823;45.534;-73.332;2022-08-19T11:16:52;100766.29;;;30.22;29.06
55912;BME280;41823;45.534;-73.332;2022-08-19T11:19:20;100771.47;;;30.09;29.35
55912;BME280;41823;45.534;-73.332;2022-08-19T11:21:49;100763.61;;;30.20;29.33
55912;BME280;41823;45.534;-73.332;2022-08-19T11:24:19;100768.38;;;30.31;29.57
55912;BME280;41823;45.534;-73.332;2022-08-19T11:26:48;100770.62;;;30.19;29.09
55912;BME280;41823;45.534;-73.332;2022-08-19T11:29:19;100772.95;;;30.33;29.50
55912;BME280;41823;45.534;-73.332;2022-08-19T11:31:49;100778.92;;;30.27;29.54
55912;BME280;41823;45.534;-73.332;2022-08-19T11:34:19;100783.73;;;30.42;29.42
55912;BME280;41823;45.534;-73.332;2022-08-19T11:36:49;100786.64;;;30.28;29.62
55912;BME280;41823;45.534;-73.332;2022-08-19T11:39:21;100792.46;;;30.46;29.59
55912;BME280;41823;45.534;-73.332;2022-08-19T11:41:49;100797.10;;;30.47;29.90
55912;BME280;41823;45.534;-73.332;2022-08-19T11:44:18;100801.98;;;30.58;29.51
55912;BME280;41823;45.534;-73.332;2022-08-19T11:46:46;100798.86;;;30.41;29.91
55912;BME280;41823;45.534;-73.332;2022-08-19T11:49:16;100800.41;;;30.32;29.95
55912;BME280;41823;45.534;-73.332;2022-08-19T11:51:45;100808.63;;;30.22;29.92
55912;BME280;41823;45.534;-73.332;2022-08-19T11:54:15;100814.16;;;30.20;30.04
55912;BME280;41823;45.534;-73.332;2022-08-19T11:56:44;100811.63;;;30.01;30.07
55912;BME280;41823;45.534;-73.332;2022-08-19T11:59:12;100813.59;;;30.25;30.09
55912;BME280;41823;45.534;-73.332;2022-08-19T12:01:40;100815.15;;;30.26;30.30
55912;BME280;41823;45.534;-73.332;2022-08-19T12:04:08;100815.34;;;30.86;30.11
55912;BME280;41823;45.534;-73.332;2022-08-19T12:06:39;100819.41;;;30.45;30.03
55912;BME280;41823;45.534;-73.332;2022-08-19T12:09:09;100821.55;;;30.33;30.18
55912;BME280;41823;45.534;-73.332;2022-08-19T12:11:37;100831.54;;;30.47;30.12
55912;BME280;41823;45.534;-73.332;2022-08-19T12:14:05;100835.83;;;30.41;30.29
55912;BME280;41823;45.534;-73.332;2022-08-19T12:16:33;100838.33;;;30.78;30.01
55912;BME280;41823;45.534;-73.332;2022-08-19T12:19:03;100841.20;;;30.51;30.23
55912;BME280;41823;45.534;-73.332;2022-08-19T12:21:34;100843.03;;;30.47;29.93
55912;BME280;41823;45.534;-73.332;2022-08-19T12:24:05;100845.18;;;30.57;29.97
55912;BME280;41823;45.534;-73.332;2022-08-19T12:26:33;100849.35;;;30.22;30.39
55912;BME280;41823;45.534;-73.332;2022-08-19T12:29:00;100852.73;;;30.69;29.93
55912;BME280;41823;45.534;-73.332;2022-08-19T12:31:29;100852.93;;;30.68;29.86
55912;BME280;41823;45.534;-73.332;2022-08-19T12:33:57;100851.38;;;30.67;30.24
55912;BME280;41823;45.534;-73.332;2022-08-19T12:36:26;100849.37;;;30.72;29.78
55912;BME280;41823;45.534;-73.332;2022-08-19T12:38:54;100856.73;;;30.70;30.19